EDT,Max TemperatureF,Mean TemperatureF,Min TemperatureF,Max Dew PointF,MeanDew PointF,Min DewpointF,Max Humidity, Mean Humidity, Min Humidity, Max Sea Level PressureIn, Mean Sea Level PressureIn, Min Sea Level PressureIn, Max VisibilityMiles, Mean VisibilityMiles, Min VisibilityMiles, Max Wind SpeedMPH, Mean Wind SpeedMPH, Max Gust SpeedMPH,PrecipitationIn, CloudCover, Events, WindDirDegrees
2013-6-1,90,74,58,66,61,57,93,65,37,29.95,29.89,29.81,10,9,1,18,3,32,0.31,1,Rain-Thunderstorm,216
2013-6-2,87,74,61,71,65,61,100,73,45,29.86,29.76,29.66,10,7,1,18,3,26,0.51,4,Rain-Thunderstorm,198
2013-6-3,70,59,48,59,51,42,100,72,44,29.88,29.82,29.78,10,10,7,15,4,22,0.03,3,,324
2013-6-4,62,53,44,44,40,38,86,65,44,30.14,30.00,29.88,10,10,10,21,7,26,0.01,4,,306
2013-6-5,69,53,37,45,39,27,93,58,22,30.23,30.19,30.14,10,10,10,14,2,20,0.00,0,,347
2013-6-6,64,57,49,52,49,42,93,71,48,30.22,30.16,30.11,10,10,7,9,2,13,0.01,7,Rain,349
2013-6-7,56,54,51,52,51,48,100,92,83,30.10,30.04,29.92,10,8,2,7,0,12,0.66,8,Rain,194
2013-6-8,64,58,52,56,53,51,100,86,72,30.04,29.88,29.79,10,9,3,12,2,15,0.11,8,Rain,349
2013-6-9,74,62,49,56,53,49,100,72,44,30.23,30.11,30.05,10,10,3,9,3,20,0.01,6,,289
2013-6-10,74,60,46,56,48,42,100,67,33,30.25,30.19,30.01,10,5,0,10,2,16,0.22,4,Fog-Rain,181
2013-6-11,61,58,54,57,55,53,100,93,86,30.00,29.74,29.62,10,4,1,7,1,10,1.59,8,Rain,16
2013-6-12,67,58,49,55,52,50,96,78,60,29.88,29.77,29.64,10,8,1,16,5,23,0.10,7,Rain,352
2013-6-13,69,57,45,54,49,45,100,74,47,29.86,29.80,29.72,10,6,0,9,2,12,0.00,4,Fog,186
2013-6-14,75,62,49,61,53,48,100,71,41,29.87,29.79,29.73,10,6,0,17,4,23,0.08,3,Fog-Rain-Thunderstorm,342
2013-6-15,73,58,43,50,44,39,100,66,31,29.98,29.92,29.87,10,9,1,18,3,25,0.00,1,,323
2013-6-16,71,58,45,61,55,44,97,77,57,29.93,29.79,29.71,10,6,2,13,2,18,0.42,7,Rain,254
2013-6-17,73,64,54,60,54,50,100,77,53,29.96,29.84,29.78,10,9,2,13,4,18,0.01,6,Rain,329
2013-6-18,70,58,45,50,46,38,100,66,31,30.02,29.98,29.95,10,8,0,9,1,14,T,3,Fog,337
2013-6-19,69,55,40,45,42,37,100,69,37,30.22,30.11,30.02,10,10,10,14,4,20,0.01,0,,332
2013-6-20,75,57,38,51,42,37,100,65,29,30.30,30.25,30.21,10,8,1,12,1,17,0.00,2,,132
2013-6-21,81,64,46,57,50,46,100,67,33,30.27,30.25,30.22,10,10,10,13,2,20,0.00,1,,340
2013-6-22,76,66,56,64,60,53,93,75,57,30.24,30.18,30.13,10,6,1,9,1,10,0.70,6,Rain,43
2013-6-23,81,72,62,72,65,61,100,84,67,30.14,30.06,29.98,10,5,0,15,2,22,0.16,6,Fog-Rain-Thunderstorm,175
2013-6-24,87,76,65,72,66,61,100,75,50,30.00,29.96,29.89,10,6,0,25,4,33,0.63,5,Rain-Thunderstorm,211
2013-6-25,87,74,61,69,64,61,100,75,50,29.93,29.84,29.77,10,5,0,23,2,35,0.43,5,Fog-Rain-Thunderstorm,188
2013-6-26,76,71,65,68,65,64,100,85,69,29.83,29.80,29.77,10,3,0,9,1,13,0.31,7,Fog-Rain,182
2013-6-27,81,72,62,70,65,62,100,84,67,29.82,29.79,29.74,10,6,0,9,1,13,0.16,6,Fog-Rain-Thunderstorm,352
2013-6-28,78,70,61,67,62,57,100,82,64,29.75,29.57,29.44,10,6,2,13,3,24,1.18,8,Rain,10
2013-6-29,80,71,61,65,62,59,100,76,52,29.70,29.59,29.52,10,8,1,13,1,21,0.39,7,Rain-Thunderstorm,281
2013-6-30,80,71,61,66,63,60,100,79,58,29.97,29.82,29.70,10,4,0,10,2,14,0.58,7,Fog-Rain,11